createdAt,value
2018-07-06T00:01:05.814Z,4.30
2018-07-06T00:02:07.670Z,4.40
2018-07-06T00:04:11.976Z,4.40
2018-07-06T00:06:31.138Z,4.60
2018-07-06T00:07:34.935Z,4.70
2018-07-06T00:08:50.404Z,4.40
2018-07-06T00:09:43.243Z,4.60
2018-07-06T00:10:55.065Z,4.20
2018-07-06T00:14:18.906Z,4.20
2018-07-06T00:17:22.818Z,4.00
2018-07-06T00:18:33.577Z,4.00
2018-07-06T00:19:30.511Z,4.00
2018-07-06T00:21:50.493Z,4.30
2018-07-06T00:22:50.910Z,4.20
2018-07-06T00:23:58.494Z,4.10
2018-07-06T00:26:11.923Z,4.70
2018-07-06T00:27:15.615Z,4.80
2018-07-06T00:29:30.681Z,6.10
2018-07-06T00:30:33.862Z,7.10
2018-07-06T00:31:43.811Z,8.30
2018-07-06T00:32:43.616Z,7.70
2018-07-06T00:33:50.369Z,8.50
2018-07-06T00:34:52.425Z,9.40
2018-07-06T00:36:04.318Z,9.70
2018-07-06T00:37:09.132Z,9.20
2018-07-06T00:38:05.860Z,8.80
2018-07-06T00:39:20.613Z,8.50
2018-07-06T00:40:15.514Z,7.90
2018-07-06T00:41:32.401Z,7.70
2018-07-06T00:42:29.336Z,7.00
2018-07-06T00:44:49.114Z,6.30
2018-07-06T00:46:05.507Z,6.40
2018-07-06T00:47:01.518Z,8.10
2018-07-06T00:47:58.248Z,6.00
2018-07-06T00:49:15.354Z,6.00
2018-07-06T00:51:26.948Z,5.80
2018-07-06T00:52:30.430Z,6.40
2018-07-06T00:53:40.575Z,6.70
2018-07-06T00:54:38.635Z,5.60
2018-07-06T00:55:35.671Z,6.00
2018-07-06T00:56:56.374Z,5.80
2018-07-06T00:57:56.479Z,5.30
2018-07-06T00:59:01.599Z,5.80
2018-07-06T01:00:18.401Z,5.90
2018-07-06T01:01:16.668Z,5.90
2018-07-06T01:02:14.523Z,6.90
2018-07-06T01:03:31.117Z,5.80
2018-07-06T01:04:18.324Z,6.30
2018-07-06T01:05:44.546Z,5.70
2018-07-06T01:06:35.952Z,6.00
2018-07-06T01:07:49.270Z,5.50
2018-07-06T01:09:58.295Z,5.40
2018-07-06T01:11:07.518Z,5.50
2018-07-06T01:12:13.161Z,6.40
2018-07-06T01:13:05.688Z,5.70
2018-07-06T01:14:11.123Z,5.80
2018-07-06T01:15:51.167Z,5.50
2018-07-06T01:16:28.853Z,5.90
2018-07-06T01:17:41.759Z,5.30
2018-07-06T01:18:59.790Z,5.20
2018-07-06T01:19:50.580Z,5.90
2018-07-06T01:21:04.005Z,5.30
2018-07-06T01:21:57.555Z,5.50
2018-07-06T01:23:25.416Z,5.80
2018-07-06T01:24:29.111Z,5.60
2018-07-06T01:25:17.649Z,5.00
2018-07-06T01:26:39.474Z,5.30
2018-07-06T01:28:30.776Z,5.30
2018-07-06T01:30:44.511Z,5.80
2018-07-06T01:32:56.925Z,4.90
2018-07-06T01:35:05.019Z,5.60
2018-07-06T01:36:01.443Z,5.00
2018-07-06T01:37:05.441Z,4.80
2018-07-06T01:38:15.491Z,5.40
2018-07-06T01:39:28.187Z,7.00
2018-07-06T01:40:32.393Z,5.10
2018-07-06T01:42:47.665Z,5.00
2018-07-06T01:43:49.924Z,4.80
2018-07-06T01:44:53.721Z,5.20
2018-07-06T01:46:55.477Z,4.90
2018-07-06T01:48:19.544Z,5.60
2018-07-06T01:49:10.540Z,5.00
2018-07-06T01:50:24.373Z,5.10
2018-07-06T01:51:24.587Z,5.80
2018-07-06T01:52:37.492Z,4.90
2018-07-06T01:53:33.403Z,5.30
2018-07-06T01:54:31.772Z,5.80
2018-07-06T01:57:56.573Z,5.00
2018-07-06T01:59:01.289Z,5.20
2018-07-06T02:00:02.730Z,5.40
2018-07-06T02:01:18.712Z,5.80
2018-07-06T02:02:32.355Z,5.20
2018-07-06T02:03:21.695Z,5.10
2018-07-06T02:04:22.624Z,5.30
2018-07-06T02:05:35.736Z,5.10
2018-07-06T02:06:38.306Z,5.80
2018-07-06T02:07:45.789Z,5.60
2018-07-06T02:08:52.756Z,5.00
2018-07-06T02:09:57.268Z,5.70
2018-07-06T02:12:05.372Z,4.90
2018-07-06T02:13:06.300Z,5.10
2018-07-06T02:14:16.956Z,4.60
2018-07-06T02:15:16.144Z,5.30
2018-07-06T02:16:24.342Z,4.80
2018-07-06T02:17:35.922Z,5.10
2018-07-06T02:18:36.746Z,5.40
2018-07-06T02:19:36.140Z,4.80
2018-07-06T02:20:42.699Z,5.00
2018-07-06T02:21:56.530Z,4.80
2018-07-06T02:23:01.657Z,4.70
2018-07-06T02:24:04.429Z,5.20
2018-07-06T02:25:11.398Z,5.30
2018-07-06T02:26:17.760Z,5.80
2018-07-06T02:27:31.690Z,4.80
2018-07-06T02:28:25.755Z,4.70
2018-07-06T02:29:33.036Z,5.30
2018-07-06T02:30:44.816Z,4.90
2018-07-06T02:31:39.702Z,4.80
2018-07-06T02:32:54.557Z,5.30
2018-07-06T02:34:06.238Z,5.40
2018-07-06T02:34:59.798Z,5.00
2018-07-06T02:37:07.795Z,5.30
2018-07-06T02:38:11.795Z,5.90
2018-07-06T02:39:23.990Z,5.00
2018-07-06T02:40:27.988Z,4.80
2018-07-06T02:41:36.902Z,6.10
2018-07-06T02:42:42.644Z,4.90
2018-07-06T02:43:45.828Z,5.40
2018-07-06T02:44:50.028Z,5.50
2018-07-06T02:45:58.375Z,4.80
2018-07-06T02:47:01.518Z,4.80
2018-07-06T02:48:09.003Z,5.60
2018-07-06T02:49:14.838Z,4.90
2018-07-06T02:50:12.082Z,5.10
2018-07-06T02:51:22.329Z,4.80
2018-07-06T02:52:30.737Z,5.30
2018-07-06T02:53:28.280Z,5.80
2018-07-06T02:54:39.551Z,5.10
2018-07-06T02:55:55.841Z,5.10
2018-07-06T02:56:47.961Z,5.90
2018-07-06T02:57:56.376Z,5.30
2018-07-06T02:59:03.950Z,5.10
2018-07-06T03:00:16.757Z,5.00
2018-07-06T03:01:16.150Z,4.90
2018-07-06T03:02:14.824Z,5.20
2018-07-06T03:03:26.709Z,5.40
2018-07-06T03:04:43.527Z,5.50
2018-07-06T03:05:35.735Z,5.50
2018-07-06T03:07:38.206Z,5.10
2018-07-06T03:08:52.139Z,4.80
2018-07-06T03:09:59.435Z,5.00
2018-07-06T03:10:59.323Z,4.20
2018-07-06T03:12:18.886Z,5.50
2018-07-06T03:13:15.309Z,4.70
2018-07-06T03:14:19.209Z,7.10
2018-07-06T03:15:15.231Z,4.70
2018-07-06T03:16:31.389Z,5.00
2018-07-06T03:17:40.117Z,4.60
2018-07-06T03:18:37.359Z,4.90
2018-07-06T03:19:51.192Z,4.90
2018-07-06T03:20:50.684Z,4.70
2018-07-06T03:22:06.768Z,5.20
2018-07-06T03:22:58.788Z,5.80
2018-07-06T03:25:09.451Z,5.30
2018-07-06T03:26:21.235Z,6.30
2018-07-06T03:27:20.219Z,4.70
2018-07-06T03:29:37.536Z,5.90
2018-07-06T03:30:41.641Z,6.00
2018-07-06T03:31:53.628Z,6.00
2018-07-06T03:32:56.399Z,5.80
2018-07-06T03:34:06.236Z,6.70
2018-07-06T03:35:02.145Z,6.60
2018-07-06T03:36:08.897Z,6.60
2018-07-06T03:37:23.561Z,7.40
2018-07-06T03:38:17.629Z,6.10
2018-07-06T03:39:30.538Z,4.90
2018-07-06T03:40:30.399Z,5.30
2018-07-06T03:41:33.012Z,6.40
2018-07-06T03:42:38.656Z,7.00
2018-07-06T03:43:45.209Z,5.60
2018-07-06T03:46:01.400Z,4.60
2018-07-06T03:47:05.506Z,5.60
2018-07-06T03:48:11.585Z,6.30
2018-07-06T03:49:19.240Z,6.20
2018-07-06T03:50:19.964Z,7.00
2018-07-06T03:51:30.108Z,7.70
2018-07-06T03:52:32.673Z,8.00
2018-07-06T03:53:37.196Z,7.30
2018-07-06T03:54:48.264Z,7.20
2018-07-06T03:55:40.579Z,7.50
2018-07-06T03:56:56.458Z,7.00
2018-07-06T03:58:05.988Z,6.20
2018-07-06T03:58:59.442Z,9.20
2018-07-06T04:00:09.278Z,7.70
2018-07-06T04:01:13.280Z,9.90
2018-07-06T04:02:19.634Z,6.90
2018-07-06T04:03:30.085Z,5.70
2018-07-06T04:04:33.472Z,6.70
2018-07-06T04:05:39.215Z,8.10
2018-07-06T04:06:48.027Z,7.40
2018-07-06T04:07:46.191Z,7.60
2018-07-06T04:08:47.733Z,6.10
2018-07-06T04:09:57.675Z,7.20
2018-07-06T04:11:07.511Z,7.50
2018-07-06T04:12:04.445Z,10.00
2018-07-06T04:13:23.498Z,6.00
2018-07-06T04:15:21.363Z,9.30
2018-07-06T04:16:26.386Z,7.90
2018-07-06T04:17:38.476Z,5.50
2018-07-06T04:18:38.074Z,5.90
2018-07-06T04:20:48.838Z,5.70
2018-07-06T04:22:01.442Z,8.00
2018-07-06T04:23:05.755Z,6.40
2018-07-06T04:24:06.375Z,6.50
2018-07-06T04:25:19.996Z,5.50
2018-07-06T04:26:24.619Z,6.90
2018-07-06T04:27:31.069Z,5.90
2018-07-06T04:28:33.532Z,7.20
2018-07-06T04:29:31.594Z,6.80
2018-07-06T04:30:41.022Z,7.20
2018-07-06T04:31:50.346Z,6.90
2018-07-06T04:32:58.239Z,8.50
2018-07-06T04:34:03.061Z,5.70
2018-07-06T04:35:15.660Z,8.70
2018-07-06T04:36:09.928Z,7.80
2018-07-06T04:37:18.645Z,7.40
2018-07-06T04:39:34.120Z,6.70
2018-07-06T04:40:37.607Z,5.70
2018-07-06T04:41:36.283Z,7.00
2018-07-06T04:42:44.601Z,6.00
2018-07-06T04:43:48.585Z,7.80
2018-07-06T04:44:59.241Z,6.70
2018-07-06T04:46:03.655Z,5.90
2018-07-06T04:47:06.320Z,8.10
2018-07-06T04:48:03.665Z,7.00
2018-07-06T04:49:26.610Z,6.40
2018-07-06T04:50:25.389Z,6.60
2018-07-06T04:51:35.639Z,6.70
2018-07-06T04:52:35.853Z,8.50
2018-07-06T04:54:45.280Z,7.00
2018-07-06T04:55:51.743Z,6.80
2018-07-06T04:57:11.612Z,6.40
2018-07-06T04:58:15.099Z,7.10
2018-07-06T04:59:01.691Z,7.90
2018-07-06T05:00:19.106Z,5.80
2018-07-06T05:01:28.124Z,6.00
2018-07-06T05:02:28.131Z,6.10
2018-07-06T05:04:39.937Z,5.70
2018-07-06T05:05:47.709Z,5.90
2018-07-06T05:07:59.601Z,7.00
2018-07-06T05:09:16.507Z,5.80
2018-07-06T05:10:08.832Z,7.70
2018-07-06T05:11:16.110Z,5.20
2018-07-06T05:12:23.591Z,5.70
2018-07-06T05:13:30.663Z,5.10
2018-07-06T05:14:18.381Z,8.60
2018-07-06T05:15:32.110Z,6.80
2018-07-06T05:16:55.709Z,6.20
2018-07-06T05:17:38.575Z,6.90
2018-07-06T05:19:01.932Z,6.70
2018-07-06T05:20:14.636Z,6.90
2018-07-06T05:21:14.437Z,5.60
2018-07-06T05:22:09.118Z,7.30
2018-07-06T05:23:25.825Z,6.70
2018-07-06T05:24:26.437Z,8.10
2018-07-06T05:25:31.770Z,7.20
2018-07-06T05:26:38.638Z,6.50
2018-07-06T05:27:44.583Z,8.20
2018-07-06T05:28:36.201Z,7.70
2018-07-06T05:29:52.789Z,7.00
2018-07-06T05:31:06.618Z,8.20
2018-07-06T05:32:02.238Z,8.10
2018-07-06T05:33:06.428Z,8.30
2018-07-06T05:34:07.671Z,7.80
2018-07-06T05:35:30.814Z,8.40
2018-07-06T05:36:34.608Z,8.50
2018-07-06T05:37:36.868Z,9.80
2018-07-06T05:38:34.319Z,11.10
2018-07-06T05:40:05.146Z,11.40
2018-07-06T05:40:48.154Z,14.00
2018-07-06T05:41:46.111Z,12.60
2018-07-06T05:42:52.058Z,12.60
2018-07-06T05:44:06.306Z,12.90
2018-07-06T05:46:00.475Z,17.30
2018-07-06T05:47:28.131Z,16.60
2018-07-06T05:48:25.473Z,16.00
2018-07-06T05:49:39.102Z,17.90
2018-07-06T05:50:39.728Z,18.40
2018-07-06T05:51:43.722Z,18.90
2018-07-06T05:52:45.573Z,19.80
2018-07-06T05:53:46.932Z,17.40
2018-07-06T05:54:57.671Z,19.70
2018-07-06T05:55:55.322Z,20.00
2018-07-06T05:57:09.562Z,18.40
2018-07-06T05:58:08.544Z,18.00
2018-07-06T05:59:09.700Z,18.10
2018-07-06T06:00:14.811Z,18.00
2018-07-06T06:03:44.214Z,17.70
2018-07-06T06:04:31.970Z,17.20
2018-07-06T06:05:48.425Z,17.70
2018-07-06T06:06:56.728Z,17.10
2018-07-06T06:09:03.092Z,16.40
2018-07-06T06:11:09.144Z,15.80
2018-07-06T06:12:19.911Z,15.40
2018-07-06T06:16:42.056Z,16.30
2018-07-06T06:17:54.342Z,15.90
2018-07-06T06:18:53.347Z,15.80
2018-07-06T06:19:54.459Z,16.00
2018-07-06T06:21:03.068Z,15.40
2018-07-06T06:22:06.249Z,15.50
2018-07-06T06:23:27.056Z,16.60
2018-07-06T06:24:14.661Z,15.80
2018-07-06T06:25:36.890Z,16.30
2018-07-06T06:26:24.578Z,17.20
2018-07-06T06:27:47.580Z,17.00
2018-07-06T06:28:40.389Z,17.10
2018-07-06T06:30:54.842Z,17.70
2018-07-06T06:31:55.582Z,19.60
2018-07-06T06:33:05.669Z,20.90
2018-07-06T06:34:10.324Z,17.30
2018-07-06T06:35:22.516Z,17.10
2018-07-06T06:37:54.376Z,18.60
2018-07-06T06:38:46.198Z,18.90
2018-07-06T06:40:01.662Z,19.00
2018-07-06T06:40:45.696Z,19.00
2018-07-06T06:41:53.789Z,19.50
2018-07-06T06:42:50.212Z,18.50
2018-07-06T06:44:08.448Z,18.40
2018-07-06T06:45:27.584Z,18.30
2018-07-06T06:46:16.755Z,17.80
2018-07-06T06:47:15.635Z,19.20
2018-07-06T06:48:47.387Z,19.20
2018-07-06T06:49:43.091Z,18.50
2018-07-06T06:50:44.127Z,17.70
2018-07-06T06:52:00.586Z,16.90
2018-07-06T06:52:44.136Z,17.70
2018-07-06T06:55:09.238Z,17.00
2018-07-06T06:55:56.657Z,18.00
2018-07-06T06:57:23.487Z,18.10
2018-07-06T06:58:14.687Z,16.70
2018-07-06T06:59:30.462Z,18.60
2018-07-06T07:00:12.855Z,18.20
2018-07-06T07:01:30.269Z,19.30
2018-07-06T07:02:37.455Z,19.20
2018-07-06T07:03:48.716Z,18.00
2018-07-06T07:04:43.604Z,17.70
2018-07-06T07:05:49.967Z,18.20
2018-07-06T07:06:53.651Z,18.70
2018-07-06T07:08:07.897Z,17.90
2018-07-06T07:09:11.380Z,18.50
2018-07-06T07:11:24.591Z,18.00
2018-07-06T07:12:25.122Z,18.00
2018-07-06T07:13:24.106Z,18.40
2018-07-06T07:15:44.908Z,19.00
2018-07-06T07:16:47.511Z,18.70
2018-07-06T07:17:54.649Z,28.00
2018-07-06T07:18:55.278Z,18.40
2018-07-06T07:19:57.017Z,18.40
2018-07-06T07:20:59.005Z,19.00
2018-07-06T07:22:20.900Z,18.50
2018-07-06T07:23:09.233Z,19.50
2018-07-06T07:24:23.669Z,18.90
2018-07-06T07:25:36.270Z,20.70
2018-07-06T07:26:24.919Z,19.10
2018-07-06T07:27:38.643Z,19.20
2018-07-06T07:28:59.025Z,18.90
2018-07-06T07:29:51.760Z,18.90
2018-07-06T07:30:51.768Z,18.80
2018-07-06T07:32:10.310Z,19.00
2018-07-06T07:34:09.513Z,20.20
2018-07-06T07:35:18.599Z,18.80
2018-07-06T07:36:30.519Z,18.50
2018-07-06T07:37:28.601Z,19.10
2018-07-06T07:38:38.824Z,19.20
2018-07-06T07:39:42.919Z,19.30
2018-07-06T07:40:42.414Z,18.50
2018-07-06T07:41:59.514Z,18.90
2018-07-06T07:42:58.606Z,18.90
2018-07-06T07:44:04.254Z,19.00
2018-07-06T07:45:04.047Z,19.50
2018-07-06T07:46:11.517Z,18.80
2018-07-06T07:47:28.334Z,18.40
2018-07-06T07:48:17.278Z,20.20
2018-07-06T07:50:36.850Z,18.40
2018-07-06T07:51:46.790Z,18.40
2018-07-06T07:53:57.557Z,18.50
2018-07-06T07:55:00.094Z,19.20
2018-07-06T07:56:06.610Z,21.20
2018-07-06T07:56:56.141Z,19.30
2018-07-06T07:58:14.990Z,18.90
2018-07-06T08:00:22.580Z,19.70
2018-07-06T08:01:39.131Z,19.00
2018-07-06T08:02:43.588Z,19.80
2018-07-06T08:03:40.950Z,19.00
2018-07-06T08:04:47.609Z,18.60
2018-07-06T08:06:01.015Z,18.40
2018-07-06T08:06:49.246Z,18.40
2018-07-06T08:08:02.976Z,19.20
2018-07-06T08:09:07.696Z,18.60
2018-07-06T08:10:12.308Z,17.50
2018-07-06T08:11:21.644Z,18.10
2018-07-06T08:12:18.873Z,17.90
2018-07-06T08:13:26.614Z,18.10
2018-07-06T08:14:33.289Z,17.10
2018-07-06T08:15:39.173Z,17.00
2018-07-06T08:16:50.237Z,17.70
2018-07-06T08:17:47.420Z,16.90
2018-07-06T08:19:01.516Z,17.00
2018-07-06T08:19:55.376Z,17.70
2018-07-06T08:22:16.616Z,17.70
2018-07-06T08:23:26.425Z,16.90
2018-07-06T08:24:24.077Z,17.70
2018-07-06T08:25:30.479Z,16.60
2018-07-06T08:26:35.568Z,16.80
2018-07-06T08:27:40.487Z,17.30
2018-07-06T08:28:41.205Z,17.10
2018-07-06T08:29:47.253Z,16.20
2018-07-06T08:30:51.253Z,17.10
2018-07-06T08:32:05.595Z,16.40
2018-07-06T08:33:09.627Z,17.70
2018-07-06T08:35:23.844Z,15.90
2018-07-06T08:37:33.891Z,15.80
2018-07-06T08:38:35.025Z,15.30
2018-07-06T08:40:48.148Z,15.30
2018-07-06T08:41:56.039Z,14.90
2018-07-06T08:42:52.256Z,15.00
2018-07-06T08:44:07.218Z,14.80
2018-07-06T08:45:12.546Z,15.40
2018-07-06T08:46:19.825Z,15.20
2018-07-06T08:47:17.378Z,16.20
2018-07-06T08:48:22.912Z,15.00
2018-07-06T08:49:31.006Z,15.30
2018-07-06T08:50:42.786Z,15.10
2018-07-06T08:51:40.951Z,15.30
2018-07-06T08:52:52.221Z,15.50
2018-07-06T08:53:57.453Z,14.80
2018-07-06T08:55:05.343Z,14.60
2018-07-06T08:56:00.434Z,14.60
2018-07-06T08:57:13.753Z,14.50
2018-07-06T08:58:20.322Z,14.80
2018-07-06T08:59:23.802Z,15.40
2018-07-06T09:00:21.257Z,14.60
2018-07-06T09:01:39.075Z,14.30
2018-07-06T09:02:47.068Z,14.70
2018-07-06T09:03:46.459Z,13.90
2018-07-06T09:04:56.605Z,13.70
2018-07-06T09:05:58.658Z,15.20
2018-07-06T09:07:05.533Z,14.50
2018-07-06T09:08:10.056Z,15.10
2018-07-06T09:09:15.640Z,14.30
2018-07-06T09:10:22.656Z,14.20
2018-07-06T09:13:30.565Z,15.50
2018-07-06T09:14:42.631Z,14.70
2018-07-06T09:15:46.747Z,14.40
2018-07-06T09:16:56.378Z,14.40
2018-07-06T09:17:57.638Z,14.50
2018-07-06T09:18:58.347Z,14.40
2018-07-06T09:20:17.862Z,13.90
2018-07-06T09:21:08.797Z,13.00
2018-07-06T09:23:39.836Z,13.90
2018-07-06T09:26:40.887Z,13.00
2018-07-06T09:27:49.594Z,14.20
2018-07-06T09:30:01.792Z,14.50
2018-07-06T09:32:18.394Z,14.90
2018-07-06T09:33:19.638Z,15.20
2018-07-06T09:34:14.212Z,16.00
2018-07-06T09:36:36.241Z,15.20
2018-07-06T09:37:48.023Z,14.20
2018-07-06T09:38:49.668Z,14.60
2018-07-06T09:40:58.575Z,14.90
2018-07-06T09:42:04.693Z,15.10
2018-07-06T09:43:04.761Z,13.90
2018-07-06T09:44:08.543Z,14.10
2018-07-06T09:45:12.134Z,14.90
2018-07-06T09:47:30.067Z,14.20
2018-07-06T09:48:40.008Z,14.40
2018-07-06T09:49:39.195Z,14.20
2018-07-06T09:50:39.816Z,14.40
2018-07-06T09:51:52.007Z,14.20
2018-07-06T09:53:03.997Z,15.60
2018-07-06T09:55:13.128Z,14.50
2018-07-06T09:57:37.920Z,14.00
2018-07-06T09:58:26.353Z,13.60
2018-07-06T09:59:27.691Z,14.20
2018-07-06T10:00:53.197Z,14.50
2018-07-06T10:02:58.434Z,15.20
2018-07-06T10:04:06.241Z,15.90
2018-07-06T10:06:10.094Z,15.20
2018-07-06T10:07:42.185Z,14.70
2018-07-06T10:09:37.283Z,15.20
2018-07-06T10:11:35.146Z,13.70
2018-07-06T10:12:52.152Z,14.40
2018-07-06T10:14:56.375Z,14.30
2018-07-06T10:16:44.298Z,14.70
2018-07-06T10:17:24.538Z,13.60
2018-07-06T10:18:24.656Z,14.20
2018-07-06T10:19:19.635Z,14.40
2018-07-06T10:20:56.826Z,14.20
2018-07-06T10:21:52.145Z,16.40
2018-07-06T10:22:54.715Z,13.20
2018-07-06T10:23:48.339Z,13.80
2018-07-06T10:25:06.065Z,13.60
2018-07-06T10:26:10.570Z,13.90
2018-07-06T10:27:12.118Z,13.30
2018-07-06T10:28:21.130Z,13.20
2018-07-06T10:29:18.269Z,14.00
2018-07-06T10:30:14.654Z,14.80
2018-07-06T10:31:21.252Z,13.70
2018-07-06T10:33:37.533Z,15.50
2018-07-06T10:34:42.573Z,14.00
2018-07-06T10:35:46.675Z,14.80
2018-07-06T10:36:52.724Z,15.00
2018-07-06T10:37:55.699Z,13.70
2018-07-06T10:39:03.492Z,13.20
2018-07-06T10:40:01.217Z,14.50
2018-07-06T10:42:13.740Z,13.40
2018-07-06T10:43:34.034Z,13.60
2018-07-06T10:44:33.948Z,15.30
2018-07-06T10:45:36.300Z,13.60
2018-07-06T10:47:45.528Z,13.50
2018-07-06T10:50:04.661Z,12.70
2018-07-06T10:51:03.113Z,12.00
2018-07-06T10:52:05.425Z,14.50
2018-07-06T10:53:10.753Z,12.80
2018-07-06T10:54:17.661Z,11.90
2018-07-06T10:55:30.021Z,13.80
2018-07-06T10:56:29.924Z,13.70
2018-07-06T10:57:40.889Z,13.60
2018-07-06T11:02:02.113Z,12.80
2018-07-06T11:02:54.949Z,13.00
2018-07-06T11:04:09.250Z,12.60
2018-07-06T11:06:15.451Z,13.20
2018-07-06T11:07:23.856Z,12.70
2018-07-06T11:08:32.667Z,12.80
2018-07-06T11:09:37.695Z,12.10
2018-07-06T11:10:27.253Z,12.80
2018-07-06T11:11:40.993Z,13.40
2018-07-06T11:12:51.842Z,13.60
2018-07-06T11:14:00.963Z,12.50
2018-07-06T11:15:12.440Z,12.10
2018-07-06T11:16:16.749Z,11.50
2018-07-06T11:17:15.935Z,11.40
2018-07-06T11:18:38.165Z,15.20
2018-07-06T11:20:43.612Z,11.20
2018-07-06T11:21:26.611Z,11.80
2018-07-06T11:22:53.652Z,10.60
2018-07-06T11:23:54.171Z,10.70
2018-07-06T11:24:50.599Z,10.20
2018-07-06T11:26:00.944Z,11.20
2018-07-06T11:27:00.623Z,10.70
2018-07-06T11:27:56.453Z,11.00
2018-07-06T11:29:08.029Z,10.40
2018-07-06T11:30:16.739Z,10.70
2018-07-06T11:31:21.867Z,11.80
2018-07-06T11:32:26.787Z,12.40
2018-07-06T11:33:30.687Z,14.00
2018-07-06T11:34:36.124Z,12.70
2018-07-06T11:35:39.673Z,12.60
2018-07-06T11:39:07.899Z,11.50
2018-07-06T11:40:13.839Z,10.20
2018-07-06T11:41:10.571Z,10.20
2018-07-06T11:42:15.901Z,10.40
2018-07-06T11:43:16.725Z,10.40
2018-07-06T11:45:35.375Z,11.10
2018-07-06T11:46:38.455Z,10.70
2018-07-06T11:48:45.125Z,10.20
2018-07-06T11:49:53.528Z,13.00
2018-07-06T11:50:52.510Z,9.60
2018-07-06T11:52:16.786Z,10.80
2018-07-06T11:54:08.709Z,9.80
2018-07-06T11:55:20.597Z,11.70
2018-07-06T11:56:29.308Z,10.80
2018-07-06T11:57:30.241Z,8.90
2018-07-06T11:58:47.036Z,9.80
2018-07-06T11:59:38.235Z,9.90
2018-07-06T12:00:50.429Z,8.70
2018-07-06T12:01:48.341Z,12.10
2018-07-06T12:03:01.401Z,9.30
2018-07-06T12:04:02.648Z,7.60
2018-07-06T12:05:21.074Z,9.60
2018-07-06T12:07:33.272Z,8.50
2018-07-06T12:08:25.189Z,8.40
2018-07-06T12:09:30.010Z,9.40
2018-07-06T12:11:41.493Z,9.20
2018-07-06T12:13:22.560Z,9.40
2018-07-06T12:14:08.744Z,8.60
2018-07-06T12:14:54.621Z,7.20
2018-07-06T12:16:02.720Z,7.70
2018-07-06T12:20:31.518Z,7.60
2018-07-06T12:21:54.873Z,7.90
2018-07-06T12:23:51.100Z,9.00
2018-07-06T12:24:52.538Z,7.70
2018-07-06T12:25:55.720Z,9.50
2018-07-06T12:26:58.910Z,8.30
2018-07-06T12:28:11.811Z,6.80
2018-07-06T12:29:11.553Z,7.90
2018-07-06T12:32:28.732Z,7.40
2018-07-06T12:33:40.721Z,7.60
2018-07-06T12:34:36.528Z,7.30
2018-07-06T12:35:52.304Z,6.70
2018-07-06T12:38:14.028Z,6.70
2018-07-06T12:39:05.646Z,7.40
2018-07-06T12:41:25.518Z,7.60
2018-07-06T12:47:43.068Z,6.50
2018-07-06T12:48:58.742Z,8.20
2018-07-06T12:50:01.619Z,8.30
2018-07-06T12:51:02.658Z,9.00
2018-07-06T12:52:20.780Z,7.10
2018-07-06T12:53:23.242Z,7.40
2018-07-06T12:54:26.940Z,8.20
2018-07-06T12:55:22.438Z,7.00
2018-07-06T12:56:26.856Z,6.10
2018-07-06T12:57:36.788Z,6.00
2018-07-06T12:58:38.408Z,7.40
2018-07-06T12:59:43.252Z,6.00
2018-07-06T13:01:03.432Z,6.00
2018-07-06T13:01:57.704Z,6.80
2018-07-06T13:03:09.487Z,5.50
2018-07-06T13:04:14.726Z,7.90
2018-07-06T13:05:17.078Z,5.10
2018-07-06T13:06:36.438Z,6.00
2018-07-06T13:07:22.009Z,5.90
2018-07-06T13:08:24.069Z,5.50
2018-07-06T13:09:50.387Z,6.90
2018-07-06T13:11:45.796Z,6.70
2018-07-06T13:13:01.672Z,5.80
2018-07-06T13:14:13.863Z,6.10
2018-07-06T13:15:01.795Z,6.70
2018-07-06T13:17:11.125Z,5.30
2018-07-06T13:18:43.802Z,5.50
2018-07-06T13:19:42.877Z,5.30
2018-07-06T13:20:36.228Z,5.60
2018-07-06T13:21:41.876Z,5.00
2018-07-06T13:22:38.186Z,5.80
2018-07-06T13:23:46.692Z,8.50
2018-07-06T13:26:07.498Z,4.70
2018-07-06T13:27:30.233Z,6.10
2018-07-06T13:28:08.025Z,8.00
2018-07-06T13:29:31.792Z,5.10
2018-07-06T13:30:13.972Z,5.40
2018-07-06T13:33:04.368Z,6.00
2018-07-06T13:35:53.714Z,5.70
2018-07-06T13:38:04.510Z,4.80
2018-07-06T13:41:18.246Z,4.60
2018-07-06T13:42:49.586Z,4.50
2018-07-06T13:43:38.332Z,6.30
2018-07-06T13:47:02.315Z,5.00
2018-07-06T13:47:48.906Z,6.50
2018-07-06T13:48:50.855Z,6.10
2018-07-06T13:50:33.505Z,4.90
2018-07-06T13:52:11.357Z,4.80
2018-07-06T13:53:27.040Z,4.30
2018-07-06T13:55:06.675Z,5.60
2018-07-06T13:55:39.024Z,4.60
2018-07-06T13:56:29.312Z,7.10
2018-07-06T13:58:52.878Z,6.80
2018-07-06T14:00:50.733Z,5.00
2018-07-06T14:04:25.883Z,4.50
2018-07-06T14:05:24.971Z,5.90
2018-07-06T14:06:23.124Z,6.30
2018-07-06T14:08:47.920Z,4.80
2018-07-06T14:09:42.706Z,4.50
2018-07-06T14:10:46.093Z,6.00
2018-07-06T14:12:02.879Z,4.40
2018-07-06T14:12:55.012Z,5.50
2018-07-06T14:14:12.940Z,4.50
2018-07-06T14:15:10.901Z,5.30
2018-07-06T14:16:13.054Z,4.70
2018-07-06T14:17:25.454Z,4.40
2018-07-06T14:18:30.789Z,3.90
2018-07-06T14:20:42.676Z,4.60
2018-07-06T14:23:18.742Z,4.60
2018-07-06T14:24:03.792Z,4.90
2018-07-06T14:25:10.147Z,4.10
2018-07-06T14:26:06.159Z,5.00
2018-07-06T14:27:25.625Z,6.40
2018-07-06T14:28:06.455Z,4.40
2018-07-06T14:30:07.825Z,5.30
2018-07-06T14:30:24.628Z,5.20
2018-07-06T14:31:27.801Z,5.60
2018-07-06T14:32:44.908Z,4.90
2018-07-06T14:33:38.671Z,4.10
2018-07-06T14:35:10.525Z,5.00
2018-07-06T14:36:02.751Z,4.00
2018-07-06T14:37:14.018Z,4.60
2018-07-06T14:38:13.007Z,4.30
2018-07-06T14:42:27.776Z,4.20
2018-07-06T14:43:30.647Z,4.00
2018-07-06T14:45:05.061Z,4.40
2018-07-06T14:45:45.816Z,4.90
2018-07-06T14:46:46.030Z,5.00
2018-07-06T14:48:34.472Z,3.90
2018-07-06T14:48:58.329Z,4.00
2018-07-06T14:50:05.199Z,6.10
2018-07-06T14:53:28.361Z,3.90
2018-07-06T14:55:53.155Z,3.80
2018-07-06T14:56:35.959Z,4.70
2018-07-06T14:57:40.061Z,7.30
2018-07-06T14:59:06.283Z,4.20
2018-07-06T15:00:01.177Z,6.90
2018-07-06T15:01:19.404Z,4.70
2018-07-06T15:02:17.567Z,5.30
2018-07-06T15:03:14.810Z,4.60
2018-07-06T15:04:32.940Z,4.20
2018-07-06T15:06:27.886Z,4.40
2018-07-06T15:07:44.227Z,5.20
2018-07-06T15:08:38.090Z,3.90
2018-07-06T15:11:12.305Z,4.30
2018-07-06T15:12:14.517Z,5.60
2018-07-06T15:14:19.698Z,4.30
2018-07-06T15:15:36.403Z,3.60
2018-07-06T15:17:35.082Z,4.50
2018-07-06T15:19:03.756Z,3.90
2018-07-06T15:20:54.864Z,3.70
2018-07-06T15:22:13.506Z,6.70
2018-07-06T15:22:51.811Z,4.10
2018-07-06T15:24:02.563Z,4.00
2018-07-06T15:25:25.813Z,4.70
2018-07-06T15:26:05.452Z,3.70
2018-07-06T15:27:20.717Z,4.30
2018-07-06T15:29:31.985Z,4.40
2018-07-06T15:33:52.604Z,6.90
2018-07-06T15:35:56.193Z,3.50
2018-07-06T15:37:03.777Z,3.70
2018-07-06T15:38:12.391Z,5.50
2018-07-06T15:39:25.916Z,4.10
2018-07-06T15:40:29.707Z,4.40
2018-07-06T15:41:32.476Z,5.70
2018-07-06T15:42:32.181Z,5.60
2018-07-06T15:44:49.290Z,4.50
2018-07-06T15:45:49.195Z,5.70
2018-07-06T15:46:54.026Z,4.20
2018-07-06T15:48:12.762Z,4.00
2018-07-06T15:49:14.204Z,3.80
2018-07-06T15:50:08.481Z,4.50
2018-07-06T15:51:20.666Z,4.60
2018-07-06T15:52:32.654Z,4.80
2018-07-06T15:53:23.648Z,4.40
2018-07-06T15:54:29.499Z,4.40
2018-07-06T15:55:38.522Z,4.50
2018-07-06T15:56:49.373Z,5.10
2018-07-06T15:59:07.510Z,5.40
2018-07-06T16:00:00.760Z,4.80
2018-07-06T16:02:11.833Z,3.80
2018-07-06T16:03:13.785Z,4.10
2018-07-06T16:04:26.849Z,5.30
2018-07-06T16:05:21.997Z,4.20
2018-07-06T16:06:29.372Z,5.90
2018-07-06T16:07:39.924Z,4.50
2018-07-06T16:11:08.624Z,4.50
2018-07-06T16:12:02.276Z,4.00
2018-07-06T16:13:15.084Z,3.80
2018-07-06T16:14:07.674Z,3.80
2018-07-06T16:16:34.866Z,4.10
2018-07-06T16:17:25.758Z,5.30
2018-07-06T16:18:53.209Z,4.70
2018-07-06T16:19:34.925Z,5.00
2018-07-06T16:20:42.278Z,3.90
2018-07-06T16:22:27.536Z,7.40
2018-07-06T16:22:55.493Z,5.30
2018-07-06T16:23:57.343Z,4.30
2018-07-06T16:25:10.760Z,6.00
2018-07-06T16:26:13.738Z,5.20
2018-07-06T16:27:29.922Z,5.50
2018-07-06T16:28:28.810Z,4.50
2018-07-06T16:29:47.754Z,4.40
2018-07-06T16:31:36.083Z,4.10
2018-07-06T16:32:52.793Z,5.50
2018-07-06T16:33:48.293Z,6.40
2018-07-06T16:37:12.379Z,5.40
2018-07-06T16:38:22.726Z,6.00
2018-07-06T16:39:33.691Z,5.90
2018-07-06T16:40:53.051Z,5.50
2018-07-06T16:43:50.823Z,4.30
2018-07-06T16:44:56.157Z,5.90
2018-07-06T16:45:48.173Z,5.90
2018-07-06T16:47:19.819Z,4.90
2018-07-06T16:48:02.110Z,4.80
2018-07-06T16:49:13.697Z,5.70
2018-07-06T16:50:32.639Z,5.60
2018-07-06T16:51:12.476Z,5.40
2018-07-06T16:52:43.304Z,6.30
2018-07-06T16:53:23.759Z,4.60
2018-07-06T16:54:36.563Z,5.10
2018-07-06T16:55:39.027Z,8.00
2018-07-06T16:57:01.046Z,6.20
2018-07-06T16:57:44.155Z,4.20
2018-07-06T16:58:57.999Z,4.30
2018-07-06T17:00:07.625Z,4.00